Dallas, TX (75234)

3:30 PM CST on February 06, 2016 (GMT -0600)
OakBrook Parkway | | Change Station
CLOSE
Current Station
Personal Weather Station
Location: Farmers Branch, TX
Elevation: 482 ft
Nearby Weather Stations
Active Advisory: Flood Warning

Elev 482 ft 32.93 °N, 96.90 °W | Updated 2 minutes ago

Overcast
Overcast
52.0 °F
Feels Like 52.0 °F
N
3.2
Wind Variable Wind from West

Today
High -- | Low -- °F
--% Chance of Precip.
Yesterday
High -- | Low -- °F
Precip. -- in
Pressure 30.36 in
Visibility 13.0 miles
Clouds Mostly Cloudy 3000 ft
Overcast 3900 ft
Dew Point 41 °F
Humidity 65%
Rainfall 0.00 in
Snow Depth Not available.
7:19 AM 6:04 PM
Waning Crescent, 4% visible
METAR KADS 062047Z 28003KT 13SM BKN030 OVC039 10/03 A3036
Pressure 30.36 in
Visibility 13.0 miles
Clouds Mostly Cloudy 3000 ft
Overcast 3900 ft
Dew Point 41 °F
Humidity 65%
Rainfall 0.00 in
Snow Depth Not available.
7:19 AM 6:04 PM
Waning Crescent, 4% visible
METAR KADS 062047Z 28003KT 13SM BKN030 OVC039 10/03 A3036

10-Day Weather Forecast

Almanac

Astronomy

Feb. 06, 2016 Rise Set
Actual Time
Civil Twilight
Nautical Twilight
Astronomical Twilight
Moon
Length of Visible Light
Length of Day
Tomorrow will be .
, % of the Moon is Illuminated

Today's Extremes

State Highs State Lows

Community

WunderPhotos

Upload Photos

1,891,050 photos uploaded!

WunderBlog® & News

Nearby

Air Quality

  Air Quality AQ Index Pollutant
Not available.

Snow Depth

Station Depth Elevation

Earthquake Activity

City Distance Mag. Time & Date
Minimum magnitude displayed is 2.5.

Coastal Water Temperatures

Place Temperature

Stations

Nearby Weather Stations

Station Location Temp. Windchill Dew Point Humidity Wind Precip. Elev Updated Type
                   

Watches & Warnings

Flood Warning
Issued: 1:26 PM CST Feb. 6, 2016 – National Weather Service

The Flood Warning continues for
the Elm Fork Trinity River near Carrollton.
* At 1215 PM Saturday the stage was 8.39 feet.
* Flood stage is 8 feet.
* Minor flooding is occurring and minor flooding is forecast.
* Forecast... the river will remain near 8.4 feet for the next few
days.
* At 8 feet, minor flooding will occur downstream from the gage.


Lat... Lon 3300 9700 3287 9699 3287 9687 3300 9688